Time;durP1;ratioP1;P1;durP2;ratioP2;P2;SDS_P1;SDS_P2;PMS_P1;PMS_P2;Temp;Humidity;BMP_temperature;BMP_pressure;BME280_temperature;BME280_humidity;BME280_pressure;Samples;Min_cycle;Max_cycle;Signal;HPM_P1;HPM_P2
2023/03/27 00:00:44;;;;;;;6.40;1.50;;;2.20;99.90;;;;;;5107314;27;20084;-71
2023/03/27 00:03:12;;;;;;;4.90;1.40;;;2.20;99.90;;;;;;5108304;27;20035;-72
2023/03/27 00:05:39;;;;;;;7.03;1.48;;;2.20;99.90;;;;;;5117691;27;20478;-73
2023/03/27 00:08:08;;;;;;;6.75;1.40;;;2.20;99.90;;;;;;5089596;27;20046;-72
2023/03/27 00:10:34;;;;;;;7.90;1.70;;;2.20;99.90;;;;;;5110759;27;20050;-72
2023/03/27 00:13:02;;;;;;;6.93;1.58;;;2.20;99.90;;;;;;5099031;27;20051;-73
2023/03/27 00:15:32;;;;;;;10.18;1.80;;;2.20;99.90;;;;;;5110817;27;20092;-71
2023/03/27 00:18:01;;;;;;;7.95;1.40;;;2.20;99.90;;;;;;5108012;27;20027;-72
2023/03/27 00:20:30;;;;;;;8.07;1.52;;;2.20;99.90;;;;;;5103351;27;20031;-71
2023/03/27 00:22:57;;;;;;;7.65;1.38;;;2.20;99.90;;;;;;5115027;27;20386;-71
2023/03/27 00:25:25;;;;;;;4.22;1.42;;;2.20;99.90;;;;;;5121680;27;20035;-71
2023/03/27 00:27:53;;;;;;;7.53;1.30;;;2.20;99.90;;;;;;5094418;27;20063;-70
2023/03/27 00:30:19;;;;;;;8.93;1.27;;;2.20;99.90;;;;;;5102271;27;20161;-72
2023/03/27 00:32:45;;;;;;;8.23;1.77;;;2.20;99.90;;;;;;5087720;27;20078;-72
2023/03/27 00:35:12;;;;;;;7.80;1.20;;;2.20;99.90;;;;;;5119569;27;20581;-72
2023/03/27 00:37:38;;;;;;;8.55;1.50;;;2.20;99.90;;;;;;5097573;27;20071;-71
2023/03/27 00:40:10;;;;;;;6.05;1.10;;;2.10;99.90;;;;;;5123174;27;20063;-71
2023/03/27 00:42:38;;;;;;;7.15;1.40;;;2.20;99.90;;;;;;5108913;27;20961;-71
2023/03/27 00:45:05;;;;;;;7.70;1.00;;;2.10;99.90;;;;;;5136353;27;20410;-71
2023/03/27 00:47:38;;;;;;;7.35;1.45;;;2.10;99.90;;;;;;5085825;27;20087;-71
2023/03/27 00:50:29;;;;;;;6.85;1.10;;;2.10;99.90;;;;;;5103378;28;20032;-70
2023/03/27 00:52:59;;;;;;;7.93;1.40;;;2.10;99.90;;;;;;5123443;27;20378;-71
2023/03/27 00:55:28;;;;;;;10.63;1.50;;;2.00;99.90;;;;;;5103704;27;20118;-71
2023/03/27 00:57:59;;;;;;;13.68;1.75;;;2.00;99.90;;;;;;5086355;27;20035;-72
2023/03/27 01:00:26;;;;;;;5.15;1.17;;;2.00;99.90;;;;;;5124206;27;20047;-71
2023/03/27 01:02:52;;;;;;;5.07;1.27;;;2.00;99.90;;;;;;5105219;27;20063;-71
2023/03/27 01:05:19;;;;;;;8.05;1.20;;;2.00;99.90;;;;;;5134447;27;20074;-71
2023/03/27 01:07:45;;;;;;;9.45;1.55;;;2.00;99.90;;;;;;5100581;27;20049;-72
2023/03/27 01:10:12;;;;;;;6.20;1.40;;;2.00;99.90;;;;;;5108152;27;20042;-72
2023/03/27 01:13:14;;;;;;;13.23;1.20;;;2.10;99.90;;;;;;5115191;27;20047;-71
2023/03/27 01:16:12;;;;;;;9.07;1.65;;;2.10;99.90;;;;;;5143017;27;20428;-71
2023/03/27 01:19:20;;;;;;;6.35;1.20;;;2.10;99.90;;;;;;5076644;27;20047;-72
2023/03/27 01:22:21;;;;;;;9.32;1.77;;;2.00;99.90;;;;;;5091192;28;20155;-72
2023/03/27 01:25:22;;;;;;;7.35;1.58;;;2.00;99.90;;;;;;5074107;28;20048;-72
2023/03/27 01:27:51;;;;;;;7.30;2.03;;;2.00;99.90;;;;;;5017565;28;20089;-72
2023/03/27 01:30:47;;;;;;;6.95;1.20;;;2.00;99.90;;;;;;5027092;28;20111;-71
2023/03/27 01:33:50;;;;;;;13.02;1.67;;;2.00;99.90;;;;;;4948191;28;20088;-72
2023/03/27 01:36:24;;;;;;;5.78;1.10;;;2.00;99.90;;;;;;4969457;28;20047;-72
2023/03/27 01:39:04;;;;;;;7.18;1.00;;;2.00;99.90;;;;;;4965121;28;20061;-72
2023/03/27 01:42:00;;;;;;;10.50;1.90;;;2.00;99.90;;;;;;4956543;28;20474;-72
2023/03/27 01:44:45;;;;;;;7.05;1.50;;;2.00;99.90;;;;;;4950353;28;20051;-71
2023/03/27 01:47:21;;;;;;;5.47;1.17;;;2.00;99.90;;;;;;4962628;28;20109;-73
2023/03/27 01:50:06;;;;;;;4.75;1.10;;;2.00;99.90;;;;;;4961082;28;20117;-71
2023/03/27 01:52:37;;;;;;;11.02;1.98;;;2.00;99.90;;;;;;4958613;28;20458;-72
2023/03/27 01:55:08;;;;;;;13.05;1.20;;;2.10;99.90;;;;;;4958710;28;20065;-72
2023/03/27 01:57:48;;;;;;;5.00;0.90;;;2.00;99.90;;;;;;4963753;28;20053;-72
2023/03/27 02:00:19;;;;;;;7.60;1.63;;;2.00;99.90;;;;;;4987444;28;20045;-72
2023/03/27 02:03:16;;;;;;;6.57;1.13;;;2.10;99.90;;;;;;4997890;28;20124;-71
2023/03/27 02:05:48;;;;;;;7.22;1.17;;;2.10;99.90;;;;;;5037727;28;20074;-72
2023/03/27 02:08:20;;;;;;;5.83;1.20;;;2.10;99.90;;;;;;5040994;28;20490;-70
2023/03/27 02:10:50;;;;;;;11.40;1.20;;;2.10;99.90;;;;;;5092377;27;20516;-72
2023/03/27 02:13:25;;;;;;;4.03;1.00;;;2.10;99.90;;;;;;5115579;27;20053;-71
2023/03/27 02:15:53;;;;;;;5.10;1.00;;;2.10;99.90;;;;;;5140556;27;20071;-72
2023/03/27 02:18:27;;;;;;;6.38;0.98;;;2.10;99.90;;;;;;5108120;27;20043;-72
2023/03/27 02:20:53;;;;;;;6.57;1.27;;;2.10;99.90;;;;;;5102988;27;20035;-72
2023/03/27 02:23:21;;;;;;;5.80;1.00;;;2.10;99.90;;;;;;5100844;27;20038;-71
2023/03/27 02:25:48;;;;;;;6.22;0.90;;;2.10;99.90;;;;;;5104239;27;20035;-71
2023/03/27 02:28:35;;;;;;;6.28;1.55;;;2.10;99.90;;;;;;5136653;27;20030;-71
2023/03/27 02:31:26;;;;;;;6.00;1.38;;;2.10;99.90;;;;;;5116915;27;20043;-72
2023/03/27 02:34:04;;;;;;;6.97;1.05;;;2.00;99.90;;;;;;5108705;27;20073;-71
2023/03/27 02:36:48;;;;;;;2.70;1.00;;;2.00;99.90;;;;;;5119101;27;20054;-72
2023/03/27 02:39:21;;;;;;;6.07;0.95;;;2.00;99.90;;;;;;5097201;27;20133;-72
2023/03/27 02:41:57;;;;;;;3.22;0.88;;;1.90;99.90;;;;;;5114003;27;20038;-72
2023/03/27 02:44:41;;;;;;;8.00;1.30;;;1.80;99.90;;;;;;5140161;27;20103;-72
2023/03/27 02:47:32;;;;;;;8.52;1.88;;;1.80;99.90;;;;;;5123384;27;20430;-72
2023/03/27 02:50:04;;;;;;;5.15;1.10;;;1.90;99.90;;;;;;5119995;27;20509;-73
2023/03/27 02:52:37;;;;;;;4.65;1.13;;;2.00;99.90;;;;;;5107329;27;20050;-73
2023/03/27 02:55:18;;;;;;;;;;;2.00;99.90;;;;;;5110809;27;20032;-71
2023/03/27 02:57:48;;;;;;;6.57;0.80;;;2.10;99.90;;;;;;5115434;27;19927;-71
2023/03/27 03:00:19;;;;;;;11.10;1.08;;;2.10;99.90;;;;;;5112357;27;20050;-72
2023/03/27 03:02:47;;;;;;;4.60;1.30;;;2.10;99.90;;;;;;5114569;27;20031;-72
2023/03/27 03:05:19;;;;;;;3.70;0.80;;;2.10;99.90;;;;;;5156284;27;20452;-72
2023/03/27 03:07:46;;;;;;;3.22;0.82;;;2.10;99.90;;;;;;5109122;27;20158;-72
2023/03/27 03:10:12;;;;;;;5.75;0.90;;;2.10;99.90;;;;;;5106232;27;20092;-72
2023/03/27 03:12:38;;;;;;;7.68;1.77;;;2.10;99.90;;;;;;5117681;27;20492;-72
2023/03/27 03:15:04;;;;;;;3.33;0.80;;;2.00;99.90;;;;;;5098885;27;20402;-71
2023/03/27 03:17:30;;;;;;;6.00;1.60;;;2.00;99.90;;;;;;5109919;27;20072;-72
2023/03/27 03:19:56;;;;;;;4.85;1.08;;;2.00;99.90;;;;;;5106648;27;20490;-72
2023/03/27 03:22:21;;;;;;;4.70;0.90;;;2.00;99.90;;;;;;5114581;27;20483;-72
2023/03/27 03:24:47;;;;;;;6.60;0.90;;;2.00;99.90;;;;;;5114763;27;20100;-73
2023/03/27 03:27:13;;;;;;;2.90;1.23;;;1.90;99.90;;;;;;5101523;27;20106;-72
2023/03/27 03:29:39;;;;;;;4.55;1.02;;;1.80;99.90;;;;;;5127779;27;20449;-71
2023/03/27 03:32:05;;;;;;;3.80;0.90;;;1.80;99.90;;;;;;5126103;27;20050;-73
2023/03/27 03:34:34;;;;;;;5.72;0.90;;;1.80;99.90;;;;;;5095822;27;20047;-72
2023/03/27 03:37:00;;;;;;;4.22;0.90;;;1.90;99.90;;;;;;5117878;27;20118;-72
2023/03/27 03:39:25;;;;;;;6.20;0.85;;;1.90;99.90;;;;;;5124575;27;20118;-73
2023/03/27 03:41:51;;;;;;;3.28;1.40;;;2.00;99.90;;;;;;5106550;27;20027;-72
2023/03/27 03:44:17;;;;;;;4.93;0.93;;;2.00;99.90;;;;;;5121305;27;20031;-73
2023/03/27 03:46:42;;;;;;;3.67;1.23;;;2.00;99.90;;;;;;5111120;27;20099;-72
2023/03/27 03:49:08;;;;;;;4.95;0.90;;;2.00;99.90;;;;;;5112579;27;20119;-72
2023/03/27 03:51:36;;;;;;;5.90;0.95;;;2.00;99.90;;;;;;5104450;27;20053;-72
2023/03/27 03:54:04;;;;;;;3.80;0.90;;;2.00;99.90;;;;;;5123078;27;20043;-73
2023/03/27 03:56:30;;;;;;;11.02;1.45;;;2.00;99.90;;;;;;5096571;27;20031;-73
2023/03/27 03:58:56;;;;;;;5.30;1.02;;;2.00;99.90;;;;;;5125416;27;20035;-73
2023/03/27 04:01:22;;;;;;;8.05;1.38;;;2.00;99.90;;;;;;5113759;27;20043;-72
2023/03/27 04:03:49;;;;;;;5.07;1.45;;;1.90;99.90;;;;;;5097521;27;20066;-72
2023/03/27 04:06:20;;;;;;;10.30;1.23;;;1.90;99.90;;;;;;5117770;27;20117;-73
2023/03/27 04:08:46;;;;;;;4.50;0.90;;;1.90;99.90;;;;;;5115927;27;20044;-72
2023/03/27 04:11:12;;;;;;;7.25;1.33;;;1.90;99.90;;;;;;5092164;27;20039;-72
2023/03/27 04:13:37;;;;;;;4.22;1.10;;;1.90;99.90;;;;;;5102451;27;20039;-72
2023/03/27 04:16:03;;;;;;;7.97;1.08;;;1.80;99.90;;;;;;5100319;27;20058;-71
2023/03/27 04:18:31;;;;;;;4.80;0.90;;;1.80;99.90;;;;;;5103224;27;20039;-73
2023/03/27 04:21:00;;;;;;;6.10;1.33;;;1.70;99.90;;;;;;5102919;27;20083;-71
2023/03/27 04:23:29;;;;;;;3.28;1.13;;;1.70;99.90;;;;;;5104802;27;20039;-72
2023/03/27 04:25:58;;;;;;;6.78;1.10;;;1.60;99.90;;;;;;5104302;27;20040;-72
2023/03/27 04:28:33;;;;;;;5.25;1.08;;;1.50;99.90;;;;;;5105987;27;20848;-72
2023/03/27 04:31:05;;;;;;;5.20;1.25;;;1.50;99.90;;;;;;5107545;27;20465;-72
2023/03/27 04:33:33;;;;;;;;;;;1.40;99.90;;;;;;5090015;27;20055;-72
2023/03/27 04:36:00;;;;;;;9.65;1.23;;;1.40;99.90;;;;;;5111262;27;19919;-72
2023/03/27 04:38:26;;;;;;;5.68;0.88;;;1.40;99.90;;;;;;5101546;27;21794;-72
2023/03/27 04:40:53;;;;;;;7.20;1.60;;;1.40;99.90;;;;;;5108576;27;20110;-72
2023/03/27 04:43:18;;;;;;;5.97;1.20;;;1.30;99.90;;;;;;5144342;27;20392;-72
2023/03/27 04:45:47;;;;;;;4.97;1.17;;;1.30;99.90;;;;;;5120850;27;20046;-72
2023/03/27 04:48:13;;;;;;;8.02;1.30;;;1.30;99.90;;;;;;5105583;27;20432;-73
2023/03/27 04:50:42;;;;;;;5.18;1.20;;;1.20;99.90;;;;;;5115927;27;20482;-72
2023/03/27 04:53:08;;;;;;;8.30;1.65;;;1.20;99.90;;;;;;5113090;27;20047;-72
2023/03/27 04:55:36;;;;;;;7.60;1.33;;;1.20;99.90;;;;;;5107066;27;20058;-71
2023/03/27 04:58:04;;;;;;;7.00;2.00;;;1.30;99.90;;;;;;5103303;27;20035;-72
2023/03/27 05:00:29;;;;;;;7.85;1.40;;;1.30;99.90;;;;;;5124447;27;20043;-73
2023/03/27 05:02:55;;;;;;;7.65;1.48;;;1.40;99.90;;;;;;5106361;27;20035;-71
2023/03/27 05:05:21;;;;;;;5.70;1.20;;;1.40;99.90;;;;;;5107591;27;20044;-71
2023/03/27 05:07:48;;;;;;;8.00;1.30;;;1.40;99.90;;;;;;5101985;27;20088;-73
2023/03/27 05:10:16;;;;;;;9.60;1.40;;;1.30;99.90;;;;;;5108210;27;20376;-72
2023/03/27 05:12:46;;;;;;;5.68;1.48;;;1.30;99.90;;;;;;5113377;27;20046;-72
2023/03/27 05:15:13;;;;;;;4.95;1.25;;;1.30;99.90;;;;;;5107710;27;20051;-72
2023/03/27 05:17:40;;;;;;;11.88;1.52;;;1.20;99.90;;;;;;5133678;27;20035;-72
2023/03/27 05:20:11;;;;;;;7.85;1.63;;;1.20;99.90;;;;;;5107418;27;20027;-72
2023/03/27 05:22:37;;;;;;;7.68;1.25;;;1.20;99.90;;;;;;5137944;27;20043;-73
2023/03/27 05:25:03;;;;;;;6.57;1.23;;;1.10;99.90;;;;;;5110713;27;20031;-73
2023/03/27 05:27:29;;;;;;;7.93;1.85;;;1.10;99.90;;;;;;5128068;27;20497;-73
2023/03/27 05:29:56;;;;;;;7.00;1.23;;;1.10;99.90;;;;;;5124741;27;20040;-73
2023/03/27 05:32:22;;;;;;;5.82;1.30;;;1.10;99.90;;;;;;5111129;27;20045;-73
2023/03/27 05:34:49;;;;;;;4.53;1.20;;;1.10;99.90;;;;;;5124119;27;20035;-74
2023/03/27 05:37:18;;;;;;;11.75;2.60;;;1.10;99.90;;;;;;5137614;27;20075;-73
2023/03/27 05:39:50;;;;;;;13.05;3.70;;;1.20;99.90;;;;;;5103787;27;21646;-73
2023/03/27 05:42:15;;;;;;;14.03;2.50;;;1.30;99.90;;;;;;5099753;27;20055;-72
2023/03/27 05:44:42;;;;;;;7.80;1.60;;;1.30;99.90;;;;;;5122909;27;20675;-73
2023/03/27 05:47:09;;;;;;;6.50;2.03;;;1.40;99.90;;;;;;5120856;27;20031;-74
2023/03/27 05:49:35;;;;;;;6.68;1.98;;;1.50;99.90;;;;;;5114981;27;20066;-75
2023/03/27 05:52:02;;;;;;;8.57;2.50;;;1.60;99.90;;;;;;5125372;27;20035;-73
2023/03/27 05:54:28;;;;;;;11.48;2.60;;;1.60;99.90;;;;;;5108064;27;20035;-75
2023/03/27 05:56:53;;;;;;;5.95;1.92;;;1.60;99.90;;;;;;5121657;27;20039;-75
2023/03/27 05:59:19;;;;;;;10.23;2.70;;;1.70;99.90;;;;;;5129014;27;20086;-73
2023/03/27 06:01:45;;;;;;;8.98;2.40;;;1.70;99.90;;;;;;5111024;27;20051;-73
2023/03/27 06:04:11;;;;;;;8.45;2.40;;;1.80;99.90;;;;;;5104809;27;20038;-72
2023/03/27 06:06:37;;;;;;;10.40;2.03;;;1.80;99.90;;;;;;5109449;27;20489;-76
2023/03/27 06:09:03;;;;;;;8.52;3.58;;;1.80;99.90;;;;;;5087901;27;20084;-73
2023/03/27 06:11:29;;;;;;;10.48;4.70;;;1.90;99.90;;;;;;5114986;27;20051;-73
2023/03/27 06:13:55;;;;;;;9.93;3.20;;;1.90;99.90;;;;;;5116399;27;20473;-74
2023/03/27 06:16:21;;;;;;;7.82;1.90;;;1.90;99.90;;;;;;5111962;27;20566;-76
2023/03/27 06:18:47;;;;;;;8.05;1.25;;;2.00;99.90;;;;;;5108300;27;20129;-74
2023/03/27 06:21:13;;;;;;;10.45;1.30;;;2.10;99.90;;;;;;5113446;27;20039;-76
2023/03/27 06:23:38;;;;;;;9.32;1.80;;;2.10;99.90;;;;;;5098687;27;20517;-74
2023/03/27 06:26:04;;;;;;;7.68;1.30;;;2.20;99.90;;;;;;5113634;27;20615;-75
2023/03/27 06:28:30;;;;;;;11.27;3.10;;;2.30;99.90;;;;;;5126713;27;20047;-75
2023/03/27 06:30:56;;;;;;;4.18;1.05;;;2.40;99.90;;;;;;5102108;27;20111;-74
2023/03/27 06:33:24;;;;;;;7.20;1.27;;;2.40;99.90;;;;;;5140959;27;20038;-75
2023/03/27 06:35:50;;;;;;;6.55;1.23;;;2.50;99.90;;;;;;5113272;27;20059;-74
2023/03/27 06:38:19;;;;;;;10.15;1.25;;;2.60;99.90;;;;;;5115307;27;20516;-76
2023/03/27 06:40:45;;;;;;;8.07;2.03;;;2.70;99.90;;;;;;5107062;27;20101;-75
2023/03/27 06:43:12;;;;;;;8.05;2.15;;;2.70;99.90;;;;;;5106741;27;20035;-74
2023/03/27 06:45:43;;;;;;;6.32;1.02;;;2.70;99.90;;;;;;5137897;27;20439;-74
2023/03/27 06:48:10;;;;;;;7.43;1.33;;;2.60;99.90;;;;;;5113426;27;20043;-73
2023/03/27 06:50:36;;;;;;;5.78;1.17;;;2.70;99.90;;;;;;5120059;27;20065;-73
2023/03/27 06:53:03;;;;;;;6.10;1.55;;;2.70;99.90;;;;;;5123506;27;20034;-74
2023/03/27 06:55:31;;;;;;;6.38;1.10;;;2.70;99.90;;;;;;5128332;27;20100;-74
2023/03/27 06:57:58;;;;;;;7.38;1.13;;;2.70;99.90;;;;;;5106469;27;20442;-73
2023/03/27 07:00:30;;;;;;;6.75;1.83;;;2.70;99.90;;;;;;5132463;27;20464;-75
2023/03/27 07:02:58;;;;;;;5.80;1.30;;;2.80;99.90;;;;;;5114856;27;20042;-74
2023/03/27 07:05:26;;;;;;;5.28;1.10;;;3.00;99.90;;;;;;5114479;27;20633;-74
2023/03/27 07:07:53;;;;;;;6.53;1.40;;;3.20;99.90;;;;;;5096624;27;20031;-74
2023/03/27 07:10:20;;;;;;;7.28;1.10;;;3.40;99.90;;;;;;5104393;27;20079;-75
2023/03/27 07:12:51;;;;;;;10.25;1.40;;;3.50;99.90;;;;;;5098258;27;20045;-75
2023/03/27 07:15:18;;;;;;;7.03;1.17;;;3.70;99.90;;;;;;5097346;27;20531;-75
2023/03/27 07:17:51;;;;;;;4.78;1.15;;;3.90;99.90;;;;;;5112764;27;20114;-74
2023/03/27 07:20:17;;;;;;;5.60;1.08;;;4.00;99.90;;;;;;5112547;27;20540;-75
2023/03/27 07:22:42;;;;;;;6.85;1.00;;;4.10;99.90;;;;;;5097420;27;20106;-74
2023/03/27 07:25:11;;;;;;;5.80;1.80;;;4.20;99.90;;;;;;5114339;27;20108;-77
2023/03/27 07:27:37;;;;;;;5.93;1.38;;;4.40;99.90;;;;;;5102231;27;20081;-74
2023/03/27 07:30:06;;;;;;;4.35;1.02;;;4.50;99.90;;;;;;5099097;27;20039;-74
2023/03/27 07:32:35;;;;;;;6.57;1.23;;;4.60;99.90;;;;;;5107645;27;20371;-74
2023/03/27 07:35:04;;;;;;;5.93;0.90;;;4.70;99.90;;;;;;5113437;27;20051;-75
2023/03/27 07:37:30;;;;;;;5.53;0.95;;;4.80;99.90;;;;;;5118223;27;20086;-75
2023/03/27 07:39:55;;;;;;;8.43;1.35;;;4.90;99.90;;;;;;5116158;27;20466;-74
2023/03/27 07:42:21;;;;;;;4.35;1.17;;;4.90;99.90;;;;;;5128920;27;20534;-74
2023/03/27 07:44:46;;;;;;;6.07;1.02;;;5.00;99.90;;;;;;5117101;27;20461;-76
2023/03/27 07:47:12;;;;;;;6.65;1.10;;;5.00;99.90;;;;;;5113250;27;20434;-74
2023/03/27 07:49:38;;;;;;;7.15;1.33;;;5.10;99.90;;;;;;5098874;27;20125;-76
2023/03/27 07:52:04;;;;;;;7.75;0.98;;;5.10;99.90;;;;;;5112949;27;20046;-74
2023/03/27 07:54:30;;;;;;;6.03;1.05;;;5.30;99.90;;;;;;5130616;27;20046;-73
2023/03/27 07:56:56;;;;;;;3.45;1.05;;;5.40;99.90;;;;;;5120747;27;20043;-75
2023/03/27 07:59:22;;;;;;;7.65;1.08;;;5.40;99.90;;;;;;5113261;27;20031;-73
2023/03/27 08:01:49;;;;;;;7.50;0.90;;;5.50;99.90;;;;;;5093656;27;20047;-73
2023/03/27 08:04:16;;;;;;;7.07;1.33;;;5.70;99.90;;;;;;5100753;27;20533;-74
2023/03/27 08:06:42;;;;;;;7.15;1.10;;;5.80;99.90;;;;;;5106394;27;20050;-74
2023/03/27 08:09:09;;;;;;;8.05;1.05;;;5.70;99.90;;;;;;5121766;27;20042;-74
2023/03/27 08:11:37;;;;;;;5.90;0.85;;;5.70;99.90;;;;;;5129333;27;20363;-73
2023/03/27 08:14:03;;;;;;;6.80;0.93;;;5.50;99.90;;;;;;5126489;27;20035;-75
2023/03/27 08:16:28;;;;;;;5.80;0.80;;;5.40;99.90;;;;;;5102024;27;20115;-73
2023/03/27 08:18:54;;;;;;;5.80;1.00;;;5.30;99.90;;;;;;5116625;27;20039;-76
2023/03/27 08:21:21;;;;;;;3.90;0.68;;;5.40;99.90;;;;;;5121555;27;20039;-73
2023/03/27 08:23:47;;;;;;;5.38;1.00;;;5.60;99.90;;;;;;5138751;27;20039;-75
2023/03/27 08:26:13;;;;;;;6.85;1.00;;;5.80;99.90;;;;;;5126227;27;20049;-74
2023/03/27 08:28:39;;;;;;;4.70;0.70;;;5.90;99.90;;;;;;5102239;27;20135;-73
2023/03/27 08:31:13;;;;;;;7.28;1.02;;;6.10;99.90;;;;;;5120376;27;20118;-75
2023/03/27 08:33:41;;;;;;;6.38;0.82;;;6.10;99.90;;;;;;5115512;27;20039;-75
2023/03/27 08:36:08;;;;;;;2.33;0.60;;;6.20;99.90;;;;;;5113641;27;20062;-75
2023/03/27 08:38:34;;;;;;;4.20;0.85;;;6.10;99.90;;;;;;5121979;27;20039;-75
2023/03/27 08:41:02;;;;;;;5.00;1.13;;;6.20;99.90;;;;;;5114919;27;20084;-74
2023/03/27 08:43:49;;;;;;;5.63;1.15;;;6.20;99.90;;;;;;5111373;27;20047;-74
2023/03/27 08:46:25;;;;;;;4.70;0.80;;;6.30;99.90;;;;;;5099362;27;20519;-74
2023/03/27 08:48:57;;;;;;;5.05;0.88;;;6.60;99.90;;;;;;5114117;27;20598;-74
2023/03/27 08:51:32;;;;;;;5.43;0.70;;;6.70;99.90;;;;;;5094354;27;20042;-74
2023/03/27 08:54:16;;;;;;;6.68;1.00;;;6.80;99.90;;;;;;5143504;27;20055;-74
2023/03/27 08:56:42;;;;;;;5.70;0.95;;;6.70;99.90;;;;;;5110309;27;20073;-74
2023/03/27 08:59:14;;;;;;;3.17;0.90;;;6.40;99.90;;;;;;5114835;27;20498;-71
2023/03/27 09:01:58;;;;;;;5.40;1.02;;;6.30;99.90;;;;;;5128211;27;20164;-71
2023/03/27 09:04:40;;;;;;;5.75;0.80;;;6.20;99.90;;;;;;5118402;27;20449;-73
2023/03/27 09:07:23;;;;;;;7.82;1.20;;;6.10;99.90;;;;;;5106190;27;20393;-71
2023/03/27 09:10:14;;;;;;;6.22;2.13;;;5.90;99.90;;;;;;5110839;27;20043;-72
2023/03/27 09:13:14;;;;;;;5.53;1.00;;;5.30;99.90;;;;;;5110360;27;20119;-69
2023/03/27 09:16:01;;;;;;;9.52;1.30;;;4.90;99.90;;;;;;5106785;27;20489;-71
2023/03/27 09:18:26;;;;;;;4.90;1.00;;;4.40;99.90;;;;;;5108924;27;20031;-69
2023/03/27 09:21:01;;;;;;;5.72;0.90;;;3.90;99.90;;;;;;5111903;27;20031;-72
2023/03/27 09:23:45;;;;;;;4.78;0.85;;;3.70;99.90;;;;;;5123052;27;20182;-71
2023/03/27 09:26:29;;;;;;;5.15;0.80;;;3.60;99.90;;;;;;5145020;27;20039;-71
2023/03/27 09:29:22;;;;;;;4.93;0.68;;;3.60;99.90;;;;;;5111524;27;20047;-72
2023/03/27 09:31:50;;;;;;;3.25;0.80;;;3.80;99.90;;;;;;5110225;27;20039;-71
2023/03/27 09:34:25;;;;;;;7.78;1.95;;;4.20;99.90;;;;;;5128547;27;20122;-72
2023/03/27 09:36:51;;;;;;;3.08;0.80;;;4.70;99.90;;;;;;5097571;27;20044;-73
2023/03/27 09:39:21;;;;;;;7.10;1.25;;;5.00;99.90;;;;;;5115765;27;20023;-71
2023/03/27 09:41:48;;;;;;;5.50;1.13;;;5.30;99.90;;;;;;5117869;27;20550;-73
2023/03/27 09:44:25;;;;;;;4.38;0.77;;;5.60;99.90;;;;;;5123251;27;20683;-72
2023/03/27 09:47:08;;;;;;;4.20;1.00;;;6.00;99.90;;;;;;5130407;27;20478;-70
2023/03/27 09:49:37;;;;;;;6.60;0.88;;;6.30;99.90;;;;;;5111344;28;20419;-68
2023/03/27 09:52:04;;;;;;;4.43;1.10;;;6.40;99.90;;;;;;5111414;28;20392;-66
2023/03/27 09:54:52;;;;;;;4.20;0.80;;;6.60;99.90;;;;;;5113994;27;20773;-67
2023/03/27 09:57:18;;;;;;;3.72;0.80;;;6.80;99.90;;;;;;5110664;27;20078;-68
2023/03/27 10:00:24;;;;;;;5.97;1.30;;;7.10;99.90;;;;;;5111516;28;20042;-67
2023/03/27 10:03:02;;;;;;;7.28;1.15;;;7.30;99.90;;;;;;5156913;27;20046;-67
2023/03/27 10:05:30;;;;;;;4.25;0.75;;;7.50;99.90;;;;;;5102769;27;20047;-67
2023/03/27 10:07:57;;;;;;;3.80;1.00;;;7.80;99.90;;;;;;5114608;27;20046;-69
2023/03/27 10:10:25;;;;;;;7.53;0.95;;;7.90;99.90;;;;;;5111654;27;20042;-68
2023/03/27 10:12:56;;;;;;;7.70;1.10;;;8.00;99.90;;;;;;5104596;27;20043;-70
2023/03/27 10:15:37;;;;;;;2.70;1.15;;;8.00;99.90;;;;;;5094778;27;20039;-70
2023/03/27 10:18:28;;;;;;;5.53;0.88;;;8.10;99.90;;;;;;5111712;27;20504;-66
2023/03/27 10:20:58;;;;;;;6.47;1.27;;;8.20;99.90;;;;;;5118268;27;20043;-73
2023/03/27 10:23:27;;;;;;;5.72;0.90;;;8.60;99.90;;;;;;5118551;27;20066;-71
2023/03/27 10:25:58;;;;;;;6.70;1.00;;;8.60;99.90;;;;;;5122352;27;20085;-72
2023/03/27 10:28:28;;;;;;;5.30;1.20;;;8.20;99.90;;;;;;5106845;27;20052;-75
2023/03/27 10:30:58;;;;;;;4.65;1.00;;;7.70;99.90;;;;;;5157358;27;20042;-74
2023/03/27 10:33:40;;;;;;;5.05;0.95;;;7.10;99.90;;;;;;5124573;27;20465;-72
2023/03/27 10:36:08;;;;;;;5.20;1.17;;;6.60;99.90;;;;;;5154096;27;20468;-72
2023/03/27 10:38:37;;;;;;;4.60;1.48;;;6.40;99.90;;;;;;5122100;27;20034;-72
2023/03/27 10:41:11;;;;;;;4.18;1.10;;;6.80;99.90;;;;;;5122188;27;20041;-71
2023/03/27 10:43:42;;;;;;;6.05;0.77;;;7.20;99.90;;;;;;5116961;27;20034;-70
2023/03/27 10:46:29;;;;;;;4.03;1.48;;;7.70;99.90;;;;;;5121672;27;20119;-73
2023/03/27 10:49:08;;;;;;;3.92;0.95;;;8.10;99.90;;;;;;5116844;27;20046;-72
2023/03/27 10:51:47;;;;;;;2.90;0.77;;;8.30;99.90;;;;;;5118364;27;20133;-73
2023/03/27 10:54:33;;;;;;;4.50;0.77;;;8.50;99.90;;;;;;5123217;27;20031;-73
2023/03/27 10:57:18;;;;;;;5.88;0.88;;;8.80;99.90;;;;;;5124218;27;20038;-70
2023/03/27 10:59:49;;;;;;;5.35;0.77;;;9.20;99.90;;;;;;5109411;27;20066;-72
2023/03/27 11:02:43;;;;;;;6.30;0.75;;;9.30;99.90;;;;;;5117147;27;20077;-74
2023/03/27 11:05:29;;;;;;;6.40;1.27;;;9.20;99.90;;;;;;5113693;27;20057;-72
2023/03/27 11:08:13;;;;;;;5.50;0.80;;;8.50;99.90;;;;;;5124118;27;20087;-71
2023/03/27 11:10:42;;;;;;;3.08;0.70;;;8.10;99.90;;;;;;5119821;27;20040;-75
2023/03/27 11:13:25;;;;;;;3.40;0.70;;;8.30;99.90;;;;;;5129491;27;20043;-74
2023/03/27 11:16:10;;;;;;;4.97;0.80;;;8.60;99.90;;;;;;5121953;27;20385;-73
2023/03/27 11:18:39;;;;;;;2.53;0.60;;;9.30;99.90;;;;;;5114980;27;20118;-74
2023/03/27 11:21:14;;;;;;;6.18;0.88;;;9.60;99.90;;;;;;5125862;27;20111;-73
2023/03/27 11:24:19;;;;;;;3.55;0.73;;;9.70;99.90;;;;;;5115939;27;20139;-75
2023/03/27 11:27:00;;;;;;;4.38;0.55;;;9.80;97.60;;;;;;5029654;28;20124;-70
2023/03/27 11:29:31;;;;;;;3.78;0.45;;;9.70;98.80;;;;;;5033042;28;22107;-72
2023/03/27 11:32:10;;;;;;;3.45;0.80;;;9.90;98.90;;;;;;5032108;28;20118;-75
2023/03/27 11:34:51;;;;;;;2.08;0.50;;;10.00;97.90;;;;;;5029617;28;20048;-73
2023/03/27 11:37:22;;;;;;;3.63;0.75;;;10.00;97.60;;;;;;5014798;28;20080;-77
2023/03/27 11:40:06;;;;;;;5.00;0.95;;;9.60;98.70;;;;;;5032056;28;20033;-73
2023/03/27 11:42:37;;;;;;;3.58;0.55;;;8.80;99.90;;;;;;5029194;28;20033;-73
2023/03/27 11:45:08;;;;;;;2.33;0.50;;;7.80;99.90;;;;;;5030163;28;20049;-74
2023/03/27 11:47:54;;;;;;;2.70;0.50;;;6.90;99.90;;;;;;5029541;28;20043;-71
2023/03/27 11:50:40;;;;;;;3.17;1.02;;;6.80;99.90;;;;;;5028301;28;20080;-71
2023/03/27 11:53:11;;;;;;;3.25;0.50;;;7.20;99.90;;;;;;5031400;28;20044;-74
2023/03/27 11:55:41;;;;;;;3.83;0.65;;;7.80;99.90;;;;;;5028429;28;20037;-70
2023/03/27 11:58:42;;;;;;;4.03;1.08;;;8.30;99.90;;;;;;5031588;28;20033;-73
2023/03/27 12:01:31;;;;;;;3.28;0.57;;;8.70;99.90;;;;;;4971279;28;20049;-73
2023/03/27 12:04:20;;;;;;;4.45;0.70;;;9.00;99.90;;;;;;5041259;28;20500;-71
2023/03/27 12:07:07;;;;;;;3.28;0.80;;;9.20;99.90;;;;;;5050915;28;20040;-74
2023/03/27 12:09:42;;;;;;;1.95;0.70;;;9.60;99.90;;;;;;5043795;28;20028;-73
2023/03/27 12:12:25;;;;;;;3.67;0.70;;;9.60;99.50;;;;;;5031291;28;20184;-73
2023/03/27 12:15:12;;;;;;;3.70;0.80;;;9.90;99.10;;;;;;5030530;28;20511;-74
2023/03/27 12:18:00;;;;;;;4.45;0.85;;;10.10;99.50;;;;;;5031462;28;20412;-72
2023/03/27 12:20:59;;;;;;;4.20;0.77;;;10.20;98.70;;;;;;5046338;28;20148;-71
2023/03/27 12:23:40;;;;;;;4.88;0.90;;;10.20;99.80;;;;;;5030169;28;20049;-76
2023/03/27 12:26:12;;;;;;;5.25;0.70;;;10.00;99.90;;;;;;5033326;28;20172;-74
2023/03/27 12:28:50;;;;;;;1.73;0.50;;;9.10;99.90;;;;;;5060296;28;20571;-69
2023/03/27 12:31:45;;;;;;;1.88;0.50;;;8.30;99.90;;;;;;5055078;28;20049;-72
2023/03/27 12:34:31;;;;;;;1.98;0.38;;;7.80;99.90;;;;;;5030597;28;20076;-73
2023/03/27 12:36:58;;;;;;;1.27;0.38;;;7.80;99.90;;;;;;5063494;27;20130;-73
2023/03/27 12:39:26;;;;;;;2.38;0.50;;;8.00;99.90;;;;;;5120366;27;20119;-72
2023/03/27 12:41:52;;;;;;;2.60;0.60;;;8.20;99.90;;;;;;5121398;27;20058;-73
2023/03/27 12:44:27;;;;;;;3.70;0.80;;;8.40;99.90;;;;;;5151029;27;20039;-72
2023/03/27 12:47:23;;;;;;;3.97;0.70;;;8.60;98.70;;;;;;5120143;27;20074;-75
2023/03/27 12:49:57;;;;;;;8.75;1.10;;;8.90;98.10;;;;;;5098906;28;20434;-73
2023/03/27 12:52:24;;;;;;;6.78;1.40;;;9.10;98.80;;;;;;5122106;27;20047;-71
2023/03/27 12:55:04;;;;;;;4.82;1.02;;;9.50;99.60;;;;;;5110915;27;20047;-71
2023/03/27 12:57:30;;;;;;;6.47;0.80;;;9.40;98.10;;;;;;5115795;28;20072;-73
2023/03/27 13:00:08;;;;;;;5.63;0.90;;;9.20;95.70;;;;;;5117357;28;20039;-71
2023/03/27 13:02:53;;;;;;;5.20;0.98;;;9.10;95.00;;;;;;5131898;27;20095;-72
2023/03/27 13:05:30;;;;;;;5.07;1.15;;;9.30;95.00;;;;;;5118888;28;20041;-75
2023/03/27 13:08:20;;;;;;;4.68;1.23;;;9.50;96.80;;;;;;5117303;28;20062;-71
2023/03/27 13:10:57;;;;;;;5.85;0.70;;;9.30;95.20;;;;;;4994502;28;20065;-72
2023/03/27 13:13:58;;;;;;;5.43;0.90;;;8.80;95.70;;;;;;5009242;28;20107;-73
2023/03/27 13:16:36;;;;;;;9.50;1.00;;;8.60;96.40;;;;;;5010399;28;20050;-70
2023/03/27 13:19:32;;;;;;;3.95;0.82;;;8.70;96.70;;;;;;5010929;28;20049;-73
2023/03/27 13:22:04;;;;;;;2.63;0.70;;;9.10;97.00;;;;;;5027848;28;20508;-71
2023/03/27 13:24:51;;;;;;;3.90;0.93;;;9.50;96.60;;;;;;4994545;28;20132;-74
2023/03/27 13:27:29;;;;;;;7.25;0.90;;;9.60;93.60;;;;;;5027237;28;20436;-74